| time (UTC) | temp F | wind direction | speed knots | gust knots | rain 1hr in | rain 24hr in | rain mn in | humidity % | barometer mb |
| 20260502221647 | 53 | 188 | 0.0 | 0.0 | 0.09 | 0.33 | 0.33 | 93 | 1008.9 |
| 20260502220947 | 53 | 186 | 0.0 | 0.0 | 0.07 | 0.31 | 0.31 | 93 | 1008.9 |
| 20260502220247 | 53 | 186 | 0.0 | 0.0 | 0.07 | 0.30 | 0.30 | 93 | 1009.0 |
| 20260502215547 | 53 | 186 | 0.0 | 0.0 | 0.06 | 0.28 | 0.28 | 92 | 1009.1 |
| 20260502214847 | 53 | 186 | 0.0 | 0.0 | 0.05 | 0.27 | 0.27 | 92 | 1009.1 |
| 20260502214147 | 53 | 186 | 0.0 | 0.0 | 0.04 | 0.26 | 0.26 | 92 | 1009.1 |
| 20260502213447 | 53 | 186 | 0.0 | 0.0 | 0.03 | 0.24 | 0.24 | 92 | 1009.2 |
| 20260502212747 | 52 | 186 | 0.0 | 0.0 | 0.04 | 0.24 | 0.24 | 92 | 1009.1 |
| 20260502212047 | 52 | 186 | 0.0 | 0.0 | 0.05 | 0.24 | 0.24 | 92 | 1009.0 |
| 20260502211347 | 52 | 186 | 0.0 | 0.0 | 0.06 | 0.24 | 0.24 | 91 | 1009.1 |
| 20260502210648 | 52 | 186 | 0.0 | 0.0 | 0.06 | 0.23 | 0.23 | 91 | 1009.1 |
| 20260502205948 | 53 | 186 | 0.0 | 0.0 | 0.07 | 0.23 | 0.23 | 91 | 1009.1 |
| 20260502205248 | 53 | 186 | 0.0 | 0.0 | 0.07 | 0.22 | 0.22 | 91 | 1009.1 |
| 20260502204548 | 53 | 186 | 0.0 | 0.0 | 0.08 | 0.22 | 0.22 | 91 | 1009.2 |
| 20260502203848 | 53 | 186 | 0.0 | 0.0 | 0.10 | 0.22 | 0.22 | 91 | 1009.3 |
| 20260502203148 | 53 | 186 | 0.0 | 0.0 | 0.10 | 0.21 | 0.21 | 90 | 1009.4 |
| 20260502202448 | 53 | 186 | 0.0 | 0.0 | 0.11 | 0.20 | 0.20 | 90 | 1009.3 |
| 20260502201748 | 53 | 186 | 0.0 | 0.0 | 0.11 | 0.19 | 0.19 | 89 | 1009.4 |
| 20260502201048 | 53 | 186 | 0.0 | 0.0 | 0.11 | 0.18 | 0.18 | 88 | 1009.5 |
| 20260502200348 | 53 | 186 | 0.0 | 0.0 | 0.11 | 0.17 | 0.17 | 88 | 1009.7 |
| 20260502195648 | 54 | 186 | 0.0 | 0.0 | 0.11 | 0.16 | 0.16 | 87 | 1009.7 |
| 20260502194948 | 54 | 186 | 0.0 | 0.0 | 0.11 | 0.15 | 0.15 | 87 | 1009.7 |
| 20260502194248 | 54 | 186 | 0.0 | 0.0 | 0.11 | 0.14 | 0.14 | 87 | 1009.8 |
| 20260502193548 | 55 | 186 | 0.0 | 0.0 | 0.10 | 0.12 | 0.12 | 86 | 1009.9 |
| 20260502192848 | 55 | 186 | 0.0 | 0.0 | 0.08 | 0.10 | 0.10 | 86 | 1009.8 |
| 20260502192148 | 56 | 186 | 0.0 | 0.0 | 0.07 | 0.09 | 0.09 | 86 | 1009.9 |
| 20260502191448 | 56 | 186 | 0.0 | 0.0 | 0.06 | 0.08 | 0.08 | 86 | 1009.9 |
| 20260502190748 | 56 | 186 | 0.0 | 0.0 | 0.04 | 0.06 | 0.06 | 86 | 1010.0 |
| 20260502190048 | 57 | 186 | 0.0 | 0.0 | 0.04 | 0.06 | 0.06 | 86 | 1010.0 |
| 20260502185348 | 57 | 188 | 0.0 | 0.0 | 0.03 | 0.04 | 0.04 | 84 | 1010.0 |
| 20260502184648 | 57 | 188 | 0.0 | 0.0 | 0.03 | 0.04 | 0.04 | 84 | 1010.0 |
| 20260502183948 | 57 | 188 | 0.0 | 0.0 | 0.01 | 0.02 | 0.02 | 83 | 1010.0 |
| 20260502183248 | 57 | 188 | 0.0 | 0.0 | 0.01 | 0.02 | 0.02 | 82 | 1010.0 |
| 20260502182548 | 57 | 188 | 0.0 | 0.0 | 0.01 | 0.02 | 0.02 | 81 | 1010.0 |
| 20260502181848 | 58 | 188 | 0.0 | 0.0 | 0.01 | 0.02 | 0.02 | 81 | 1010.1 |
| 20260502181148 | 58 | 188 | 0.0 | 0.0 | 0.02 | 0.02 | 0.02 | 80 | 1010.0 |
| 20260502180448 | 58 | 187 | 0.0 | 0.0 | 0.02 | 0.02 | 0.02 | 79 | 1010.0 |
| 20260502170149 | 62 | 175 | 0.0 | 0.0 | 0.00 | 0.00 | 0.00 | 65 | 1010.3 |
| 20260502164048 | 62 | 182 | 0.0 | 0.0 | 0.00 | 0.00 | 0.00 | 59 | 1010.4 |
| 20260502163348 | 62 | 179 | 0.0 | 0.0 | 0.00 | 0.00 | 0.00 | 60 | 1010.4 |
| 20260502162648 | 62 | 179 | 0.0 | 0.0 | 0.00 | 0.00 | 0.00 | 59 | 1010.5 |
| 20260502161949 | 63 | 198 | 0.0 | 0.0 | 0.00 | 0.00 | 0.00 | 59 | 1010.5 |
| 20260502161249 | 63 | 201 | 0.0 | 0.0 | 0.00 | 0.00 | 0.00 | 59 | 1010.5 |
| 20260502160549 | 63 | 184 | 0.0 | 0.0 | 0.00 | 0.00 | 0.00 | 58 | 1010.5 |
| 20260502151649 | 64 | 175 | 0.0 | 0.0 | 0.00 | 0.04 | 0.00 | 56 | 1011.3 |
| 20260502150949 | 64 | 175 | 0.0 | 0.0 | 0.00 | 0.04 | 0.00 | 55 | 1011.2 |
| 20260502150249 | 64 | 123 | 0.0 | 0.0 | 0.00 | 0.04 | 0.00 | 56 | 1011.4 |
| 20260502130349 | 65 | 161 | 0.9 | 1.7 | 0.00 | 0.06 | 0.00 | 57 | 1012.7 |
| 20260502123549 | 63 | 244 | 1.7 | 3.5 | 0.00 | 0.06 | 0.00 | 58 | 1013.0 |
| 20260502122849 | 63 | 200 | 0.9 | 3.5 | 0.00 | 0.06 | 0.00 | 60 | 1013.0 |
| 20260502122149 | 63 | 205 | 0.0 | 0.0 | 0.00 | 0.06 | 0.00 | 59 | 1013.1 |
| 20260502121449 | 64 | 121 | 0.0 | 0.0 | 0.00 | 0.06 | 0.00 | 58 | 1013.2 |
| 20260502120749 | 64 | 123 | 0.0 | 0.0 | 0.00 | 0.06 | 0.00 | 59 | 1013.3 |
| 20260502115349 | 62 | 232 | 0.0 | 0.0 | 0.00 | 0.06 | 0.00 | 62 | 1013.5 |
| 20260502114649 | 62 | 75 | 0.0 | 0.0 | 0.00 | 0.06 | 0.00 | 61 | 1013.7 |
| 20260502113949 | 62 | 63 | 0.0 | 0.0 | 0.00 | 0.06 | 0.00 | 62 | 1013.7 |
| 20260502113250 | 62 | 264 | 0.0 | 0.0 | 0.00 | 0.06 | 0.00 | 61 | 1013.8 |
| 20260502112550 | 62 | 202 | 0.0 | 0.0 | 0.00 | 0.06 | 0.00 | 61 | 1013.8 |
| 20260502111850 | 62 | 226 | 0.0 | 0.0 | 0.00 | 0.06 | 0.00 | 61 | 1014.0 |
| 20260502111150 | 62 | 227 | 0.0 | 0.0 | 0.00 | 0.06 | 0.00 | 61 | 1014.2 |
| 20260502110450 | 62 | 219 | 0.0 | 0.0 | 0.00 | 0.06 | 0.00 | 61 | 1014.3 |
| 20260502105750 | 62 | 222 | 0.0 | 0.0 | 0.00 | 0.06 | 0.00 | 64 | 1014.4 |
| 20260502105050 | 62 | 173 | 0.0 | 0.0 | 0.00 | 0.06 | 0.00 | 64 | 1014.4 |
| 20260502104350 | 61 | 184 | 0.0 | 0.0 | 0.00 | 0.06 | 0.00 | 64 | 1014.4 |
| 20260502103650 | 61 | 182 | 0.0 | 0.0 | 0.00 | 0.06 | 0.00 | 65 | 1014.2 |
| 20260502102950 | 60 | 180 | 0.0 | 0.0 | 0.00 | 0.06 | 0.00 | 67 | 1014.2 |
| 20260502102250 | 59 | 324 | 0.0 | 0.0 | 0.00 | 0.06 | 0.00 | 66 | 1014.3 |
| 20260502101550 | 59 | 248 | 0.0 | 1.7 | 0.00 | 0.06 | 0.00 | 67 | 1014.5 |
| 20260502100850 | 59 | 266 | 0.0 | 0.0 | 0.00 | 0.06 | 0.00 | 68 | 1014.5 |
| 20260502100150 | 59 | 264 | 0.0 | 0.0 | 0.00 | 0.06 | 0.00 | 67 | 1014.5 |
| 20260502091250 | 57 | 329 | 0.9 | 3.5 | 0.00 | 0.06 | 0.00 | 73 | 1015.0 |
| 20260502090550 | 57 | 228 | 0.9 | 3.5 | 0.00 | 0.06 | 0.00 | 76 | 1015.1 |
| 20260502071350 | 51 | 305 | 0.0 | 0.0 | 0.00 | 0.06 | 0.00 | 95 | 1015.4 |
| 20260502070650 | 50 | 310 | 0.0 | 0.9 | 0.00 | 0.06 | 0.00 | 95 | 1015.3 |
| 20260502065950 | 50 | 316 | 0.0 | 0.0 | 0.00 | 0.06 | 0.00 | 95 | 1015.3 |
| 20260502065250 | 49 | 317 | 0.0 | 0.0 | 0.00 | 0.06 | 0.00 | 96 | 1015.4 |
| 20260502064550 | 49 | 317 | 0.0 | 0.0 | 0.00 | 0.06 | 0.00 | 96 | 1015.5 |
| 20260502063850 | 48 | 317 | 0.0 | 0.0 | 0.00 | 0.06 | 0.00 | 95 | 1015.4 |
| 20260502063151 | 48 | 317 | 0.0 | 0.0 | 0.00 | 0.06 | 0.00 | 95 | 1015.4 |
| 20260502062451 | 47 | 317 | 0.0 | 0.0 | 0.00 | 0.06 | 0.00 | 95 | 1015.5 |
| 20260502061751 | 47 | 317 | 0.0 | 0.0 | 0.00 | 0.06 | 0.00 | 95 | 1015.5 |
| 20260502061051 | 46 | 317 | 0.0 | 0.0 | 0.00 | 0.06 | 0.00 | 95 | 1015.5 |
| 20260502060351 | 46 | 317 | 0.0 | 0.0 | 0.00 | 0.06 | 0.00 | 95 | 1015.4 |
| 20260502055651 | 46 | 317 | 0.0 | 0.0 | 0.00 | 0.06 | 0.00 | 95 | 1015.4 |
| 20260502054951 | 46 | 348 | 0.0 | 0.0 | 0.00 | 0.06 | 0.00 | 95 | 1015.3 |
| 20260502054251 | 45 | 348 | 0.0 | 0.0 | 0.00 | 0.06 | 0.00 | 95 | 1015.3 |
| 20260502053551 | 45 | 348 | 0.0 | 0.0 | 0.00 | 0.06 | 0.00 | 95 | 1015.2 |
| 20260502052851 | 45 | 348 | 0.0 | 0.0 | 0.00 | 0.06 | 0.00 | 95 | 1015.2 |
| 20260502052151 | 45 | 348 | 0.0 | 0.0 | 0.00 | 0.06 | 0.00 | 95 | 1015.2 |
| 20260502051451 | 45 | 342 | 0.0 | 0.0 | 0.00 | 0.06 | 0.00 | 95 | 1015.2 |
| 20260502050751 | 45 | 342 | 0.0 | 0.0 | 0.00 | 0.06 | 0.00 | 95 | 1015.2 |
| 20260502050051 | 45 | 342 | 0.0 | 0.0 | 0.00 | 0.06 | 0.00 | 94 | 1015.2 |
| 20260502045351 | 45 | 342 | 0.0 | 0.0 | 0.00 | 0.06 | 0.00 | 94 | 1015.2 |
| 20260502044651 | 45 | 238 | 0.0 | 0.0 | 0.00 | 0.06 | 0.00 | 94 | 1015.3 |
| 20260502043951 | 45 | 238 | 0.0 | 0.0 | 0.00 | 0.06 | 0.00 | 94 | 1015.2 |
| 20260502043251 | 45 | 238 | 0.0 | 0.0 | 0.00 | 0.06 | 0.00 | 95 | 1015.2 |
| 20260502042551 | 45 | 238 | 0.0 | 0.0 | 0.00 | 0.06 | 0.00 | 94 | 1015.2 |
| 20260502041851 | 45 | 238 | 0.0 | 1.7 | 0.00 | 0.06 | 0.00 | 94 | 1015.3 |
| 20260502041151 | 45 | 238 | 0.0 | 0.0 | 0.00 | 0.06 | 0.00 | 94 | 1015.3 |
| 20260502040451 | 45 | 238 | 0.0 | 0.0 | 0.00 | 0.06 | 0.00 | 94 | 1015.3 |
| 20260502035751 | 45 | 238 | 0.0 | 0.0 | 0.00 | 0.06 | 0.00 | 94 | 1015.3 |
| 20260502035051 | 45 | 238 | 0.0 | 0.0 | 0.00 | 0.06 | 0.00 | 94 | 1015.4 |
| 20260502034351 | 44 | 238 | 0.0 | 0.0 | 0.00 | 0.06 | 0.00 | 94 | 1015.5 |
| 20260502033651 | 44 | 238 | 0.0 | 0.0 | 0.00 | 0.06 | 0.00 | 94 | 1015.4 |
| 20260502032951 | 44 | 238 | 0.0 | 0.0 | 0.00 | 0.06 | 0.00 | 94 | 1015.5 |
| 20260502032251 | 44 | 238 | 0.0 | 0.0 | 0.00 | 0.06 | 0.00 | 94 | 1015.6 |
| 20260502031551 | 44 | 238 | 0.0 | 0.9 | 0.00 | 0.06 | 0.00 | 94 | 1015.7 |
| 20260502030851 | 44 | 238 | 0.0 | 0.0 | 0.00 | 0.06 | 0.00 | 94 | 1015.7 |
| 20260502030151 | 44 | 238 | 0.0 | 0.0 | 0.00 | 0.06 | 0.00 | 93 | 1015.7 |
| 20260502025451 | 45 | 238 | 0.0 | 0.0 | 0.00 | 0.06 | 0.00 | 93 | 1015.7 |
| 20260502024751 | 45 | 238 | 0.0 | 0.0 | 0.00 | 0.06 | 0.00 | 94 | 1015.7 |
| 20260502024051 | 45 | 238 | 0.0 | 0.0 | 0.00 | 0.06 | 0.00 | 94 | 1015.7 |
| 20260502023351 | 45 | 238 | 0.0 | 0.0 | 0.00 | 0.06 | 0.00 | 94 | 1015.8 |
| 20260502022651 | 45 | 238 | 0.0 | 0.0 | 0.00 | 0.06 | 0.00 | 94 | 1015.8 |
| 20260502021951 | 45 | 237 | 0.0 | 0.0 | 0.00 | 0.06 | 0.00 | 93 | 1015.8 |
| 20260502021251 | 45 | 237 | 0.0 | 0.0 | 0.00 | 0.06 | 0.00 | 93 | 1015.9 |
| 20260502020551 | 45 | 237 | 0.0 | 0.0 | 0.00 | 0.06 | 0.00 | 93 | 1015.9 |
| 20260502015851 | 46 | 237 | 0.0 | 0.0 | 0.00 | 0.06 | 0.06 | 93 | 1015.9 |
| 20260502015152 | 46 | 237 | 0.0 | 0.0 | 0.00 | 0.06 | 0.06 | 93 | 1016.0 |
| 20260502014452 | 46 | 237 | 0.0 | 0.0 | 0.00 | 0.06 | 0.06 | 93 | 1016.1 |
| 20260502013752 | 46 | 237 | 0.0 | 0.0 | 0.00 | 0.06 | 0.06 | 93 | 1016.2 |
| 20260502013052 | 46 | 237 | 0.0 | 0.0 | 0.00 | 0.06 | 0.06 | 93 | 1016.2 |
| 20260502012352 | 47 | 237 | 0.0 | 0.0 | 0.00 | 0.06 | 0.06 | 93 | 1016.3 |
| 20260502011652 | 47 | 237 | 0.0 | 0.0 | 0.00 | 0.06 | 0.06 | 93 | 1016.4 |
| 20260502010952 | 47 | 237 | 0.0 | 0.0 | 0.00 | 0.06 | 0.06 | 93 | 1016.5 |
| 20260502010252 | 47 | 237 | 0.0 | 0.0 | 0.00 | 0.06 | 0.06 | 93 | 1016.6 |
| 20260502005552 | 47 | 238 | 0.0 | 0.0 | 0.00 | 0.06 | 0.06 | 93 | 1016.7 |
| 20260502004852 | 47 | 238 | 0.0 | 0.9 | 0.00 | 0.06 | 0.06 | 93 | 1016.7 |
| 20260502004152 | 47 | 236 | 0.0 | 0.0 | 0.00 | 0.06 | 0.06 | 92 | 1016.8 |
| 20260502003452 | 48 | 236 | 0.0 | 0.0 | 0.00 | 0.06 | 0.06 | 93 | 1016.7 |
| 20260502002752 | 48 | 236 | 0.0 | 0.0 | 0.00 | 0.06 | 0.06 | 93 | 1016.8 |
| 20260502002052 | 48 | 236 | 0.0 | 0.0 | 0.00 | 0.06 | 0.06 | 92 | 1016.9 |
| 20260502001352 | 48 | 236 | 0.0 | 0.0 | 0.00 | 0.06 | 0.06 | 93 | 1017.0 |
| 20260502000652 | 48 | 236 | 0.0 | 0.0 | 0.00 | 0.06 | 0.06 | 93 | 1017.0 |
| 20260501235952 | 48 | 236 | 0.0 | 0.0 | 0.00 | 0.06 | 0.06 | 92 | 1017.0 |
| 20260501235252 | 49 | 236 | 0.0 | 0.0 | 0.00 | 0.06 | 0.06 | 92 | 1017.0 |
| 20260501234552 | 49 | 236 | 0.0 | 0.0 | 0.00 | 0.06 | 0.06 | 92 | 1017.0 |
| 20260501233852 | 49 | 236 | 0.0 | 0.0 | 0.00 | 0.06 | 0.06 | 92 | 1017.0 |
| 20260501233152 | 49 | 236 | 0.0 | 0.0 | 0.00 | 0.06 | 0.06 | 92 | 1017.0 |
| 20260501232452 | 49 | 236 | 0.0 | 0.0 | 0.00 | 0.06 | 0.06 | 93 | 1017.1 |
| 20260501231752 | 49 | 236 | 0.0 | 1.7 | 0.00 | 0.06 | 0.06 | 93 | 1017.1 |
| 20260501231052 | 49 | 240 | 0.0 | 0.9 | 0.00 | 0.06 | 0.06 | 93 | 1017.2 |
| 20260501230352 | 49 | 240 | 0.0 | 1.7 | 0.00 | 0.06 | 0.06 | 93 | 1017.1 |
| 20260501225652 | 49 | 268 | 0.0 | 0.0 | 0.00 | 0.06 | 0.06 | 92 | 1017.2 |
| 20260501224952 | 49 | 268 | 0.0 | 0.0 | 0.00 | 0.06 | 0.06 | 93 | 1017.1 |
| 20260501224252 | 50 | 268 | 0.0 | 0.0 | 0.00 | 0.06 | 0.06 | 93 | 1017.1 |
| 20260501223552 | 50 | 268 | 0.0 | 0.0 | 0.00 | 0.06 | 0.06 | 92 | 1017.2 |
| 20260501222852 | 50 | 268 | 0.0 | 0.0 | 0.00 | 0.06 | 0.06 | 92 | 1017.1 |